createdAt,value
2022-12-26T00:01:06.625Z,59.10
2022-12-26T00:03:33.485Z,59.06
2022-12-26T00:06:03.064Z,59.24
2022-12-26T00:08:32.167Z,58.98
2022-12-26T00:11:05.989Z,58.93
2022-12-26T00:13:39.426Z,58.91
2022-12-26T00:16:09.270Z,59.16
2022-12-26T00:18:35.958Z,59.11
2022-12-26T00:21:05.962Z,59.09
2022-12-26T00:23:35.669Z,59.10
2022-12-26T00:26:05.123Z,59.16
2022-12-26T00:28:34.759Z,59.22
2022-12-26T00:31:08.390Z,59.35
2022-12-26T00:33:35.558Z,59.48
2022-12-26T00:36:06.255Z,59.70
2022-12-26T00:38:33.000Z,59.91
2022-12-26T00:40:59.806Z,59.87
2022-12-26T00:43:26.401Z,59.99
2022-12-26T00:45:53.120Z,60.15
2022-12-26T00:48:22.593Z,60.26
2022-12-26T00:50:51.635Z,60.22
2022-12-26T00:53:18.516Z,60.41
2022-12-26T00:55:45.328Z,60.45
2022-12-26T00:58:11.932Z,60.58
2022-12-26T01:00:38.755Z,60.53
2022-12-26T01:03:08.134Z,60.64
2022-12-26T01:05:34.985Z,60.72
2022-12-26T01:08:21.850Z,60.74
2022-12-26T01:10:49.702Z,60.56
2022-12-26T01:13:16.401Z,60.95
2022-12-26T01:15:50.077Z,61.07
2022-12-26T01:18:16.701Z,61.13
2022-12-26T01:20:45.689Z,61.18
2022-12-26T01:23:12.388Z,61.38
2022-12-26T01:26:16.783Z,61.74
2022-12-26T01:28:26.551Z,61.94
2022-12-26T01:30:53.250Z,62.23
2022-12-26T01:33:19.921Z,62.18
2022-12-26T01:35:50.393Z,62.22
2022-12-26T01:38:17.262Z,62.23
2022-12-26T01:40:44.084Z,62.10
2022-12-26T01:43:14.736Z,62.05
2022-12-26T01:45:46.565Z,62.09
2022-12-26T01:48:16.024Z,62.03
2022-12-26T01:50:56.136Z,62.22
2022-12-26T01:53:25.936Z,62.38
2022-12-26T01:55:58.093Z,62.43
2022-12-26T01:58:27.206Z,62.60
2022-12-26T02:00:53.909Z,62.67
2022-12-26T02:03:39.340Z,62.66
2022-12-26T02:06:06.857Z,62.69
2022-12-26T02:08:34.640Z,62.81
2022-12-26T02:11:08.063Z,63.05
2022-12-26T02:13:36.034Z,63.15
2022-12-26T02:16:07.200Z,63.18
2022-12-26T02:18:33.978Z,63.47
2022-12-26T02:21:00.876Z,63.53
2022-12-26T02:23:39.283Z,63.73
2022-12-26T02:26:18.471Z,63.56
2022-12-26T02:28:47.674Z,63.72
2022-12-26T02:31:14.390Z,63.83
2022-12-26T02:33:52.567Z,63.95
2022-12-26T02:36:22.349Z,64.06
2022-12-26T02:39:44.650Z,64.22
2022-12-26T02:41:58.929Z,64.06
2022-12-26T02:44:47.830Z,64.36
2022-12-26T02:47:23.580Z,65.27
2022-12-26T02:50:08.967Z,65.49
2022-12-26T02:53:20.402Z,65.54
2022-12-26T02:56:08.808Z,65.45
2022-12-26T02:59:17.713Z,65.22
2022-12-26T03:02:04.305Z,65.45
2022-12-26T03:04:50.940Z,65.25
2022-12-26T03:07:49.515Z,65.41
2022-12-26T03:10:35.668Z,65.26
2022-12-26T03:13:12.438Z,65.25
2022-12-26T03:16:00.258Z,65.18
2022-12-26T03:18:58.097Z,65.94
2022-12-26T03:21:14.420Z,66.01
2022-12-26T03:23:41.816Z,65.86
2022-12-26T03:26:28.530Z,65.83
2022-12-26T03:29:18.847Z,65.82
2022-12-26T03:31:45.922Z,65.80
2022-12-26T03:34:17.815Z,65.97
2022-12-26T03:36:44.573Z,65.83
2022-12-26T03:39:48.815Z,65.94
2022-12-26T03:42:46.561Z,66.16
2022-12-26T03:45:38.168Z,66.25
2022-12-26T03:48:35.911Z,66.14
2022-12-26T03:51:29.832Z,66.02
2022-12-26T03:54:41.740Z,67.12
2022-12-26T03:57:28.261Z,68.10
2022-12-26T04:00:21.310Z,68.54
2022-12-26T04:03:07.430Z,68.71
2022-12-26T04:05:53.973Z,68.47
2022-12-26T04:08:43.918Z,68.64
2022-12-26T04:11:29.931Z,68.26
2022-12-26T04:14:18.287Z,67.91
2022-12-26T04:17:05.276Z,67.63
2022-12-26T04:19:50.858Z,67.78
2022-12-26T04:22:44.676Z,67.96
2022-12-26T04:25:51.449Z,67.81
2022-12-26T04:28:40.462Z,67.92
2022-12-26T04:31:27.052Z,67.57
2022-12-26T04:34:15.197Z,67.62
2022-12-26T04:37:02.292Z,68.09
2022-12-26T04:39:48.574Z,68.52
2022-12-26T04:42:33.989Z,68.20
2022-12-26T04:45:00.679Z,68.79
2022-12-26T04:47:30.482Z,68.94
2022-12-26T04:50:12.121Z,68.91
2022-12-26T04:53:00.806Z,69.27
2022-12-26T04:55:28.610Z,69.37
2022-12-26T04:57:55.510Z,69.84
2022-12-26T05:00:28.327Z,70.10
2022-12-26T05:03:18.701Z,69.68
2022-12-26T05:06:05.687Z,69.22
2022-12-26T05:08:57.408Z,68.85
2022-12-26T05:11:24.176Z,69.05
2022-12-26T05:13:56.785Z,69.33
2022-12-26T05:16:42.614Z,69.05
2022-12-26T05:19:31.169Z,69.10
2022-12-26T05:22:16.748Z,69.07
2022-12-26T05:25:02.116Z,68.85
2022-12-26T05:27:58.674Z,68.65
2022-12-26T05:30:25.760Z,68.27
2022-12-26T05:33:11.447Z,68.29
2022-12-26T05:35:38.165Z,68.16
2022-12-26T05:38:04.756Z,68.12
2022-12-26T05:40:33.977Z,67.99
2022-12-26T05:43:04.898Z,67.86
2022-12-26T05:45:31.978Z,67.99
2022-12-26T05:48:01.949Z,67.62
2022-12-26T05:50:31.081Z,67.92
2022-12-26T05:52:58.177Z,67.71
2022-12-26T05:55:25.133Z,67.80
2022-12-26T05:57:51.856Z,67.55
2022-12-26T06:00:23.787Z,67.62
2022-12-26T06:02:50.977Z,67.74
2022-12-26T06:05:17.636Z,67.50
2022-12-26T06:07:47.009Z,67.52
2022-12-26T06:10:13.752Z,67.48
2022-12-26T06:12:40.418Z,67.53
2022-12-26T06:15:09.688Z,67.62
2022-12-26T06:17:36.297Z,67.70
2022-12-26T06:20:05.479Z,67.86
2022-12-26T06:22:32.073Z,68.04
2022-12-26T06:25:03.617Z,68.06
2022-12-26T06:27:30.225Z,68.08
2022-12-26T06:30:04.408Z,67.95
2022-12-26T06:32:31.204Z,67.96
2022-12-26T06:35:00.365Z,67.85
2022-12-26T06:37:29.525Z,67.88
2022-12-26T06:39:56.216Z,67.99
2022-12-26T06:42:22.806Z,68.09
2022-12-26T06:44:49.427Z,67.89
2022-12-26T06:47:16.049Z,67.94
2022-12-26T06:49:42.653Z,67.62
2022-12-26T06:52:11.505Z,67.48
2022-12-26T06:54:38.282Z,67.22
2022-12-26T06:57:04.989Z,67.30
2022-12-26T06:59:31.555Z,67.50
2022-12-26T07:01:58.584Z,67.59
2022-12-26T07:04:30.311Z,67.18
2022-12-26T07:06:57.082Z,67.02
2022-12-26T07:09:28.388Z,67.15
2022-12-26T07:11:58.197Z,66.97
2022-12-26T07:14:27.159Z,66.85
2022-12-26T07:16:56.019Z,66.66
2022-12-26T07:19:25.183Z,66.81
2022-12-26T07:21:51.943Z,67.25
2022-12-26T07:24:20.092Z,66.79
2022-12-26T07:26:47.070Z,66.84
2022-12-26T07:29:16.576Z,66.99
2022-12-26T07:31:43.254Z,66.95
2022-12-26T07:34:10.112Z,66.93
2022-12-26T07:36:36.712Z,66.85
2022-12-26T07:39:03.813Z,66.71
2022-12-26T07:41:49.233Z,66.94
2022-12-26T07:44:15.819Z,66.51
2022-12-26T07:46:42.450Z,66.49
2022-12-26T07:49:12.176Z,66.15
2022-12-26T07:51:38.933Z,66.30
2022-12-26T07:54:11.358Z,66.16
2022-12-26T07:56:42.026Z,66.25
2022-12-26T07:59:14.534Z,66.08
2022-12-26T08:01:42.215Z,65.66
2022-12-26T08:04:12.696Z,65.44
2022-12-26T08:06:39.362Z,65.04
2022-12-26T08:09:07.975Z,65.24
2022-12-26T08:11:35.596Z,65.09
2022-12-26T08:14:05.109Z,64.88
2022-12-26T08:16:34.389Z,64.80
2022-12-26T08:19:02.831Z,64.75
2022-12-26T08:21:31.617Z,64.62
2022-12-26T08:23:58.250Z,64.89
2022-12-26T08:26:24.848Z,65.05
2022-12-26T08:28:55.297Z,64.90
2022-12-26T08:31:22.263Z,64.82
2022-12-26T08:33:49.135Z,64.60
2022-12-26T08:36:19.344Z,64.50
2022-12-26T08:38:46.020Z,64.31
2022-12-26T08:41:12.711Z,64.17
2022-12-26T08:44:24.485Z,64.31
2022-12-26T08:46:31.150Z,64.20
2022-12-26T08:48:57.778Z,64.62
2022-12-26T08:51:24.914Z,64.70
2022-12-26T08:53:54.696Z,65.04
2022-12-26T08:56:22.708Z,64.72
2022-12-26T08:58:49.340Z,64.86
2022-12-26T09:01:17.358Z,65.22
2022-12-26T09:03:46.245Z,65.33
2022-12-26T09:06:18.264Z,65.30
2022-12-26T09:08:45.001Z,65.00
2022-12-26T09:11:15.819Z,64.28
2022-12-26T09:13:42.797Z,64.51
2022-12-26T09:16:13.731Z,64.92
2022-12-26T09:18:40.490Z,65.07
2022-12-26T09:21:09.048Z,64.81
2022-12-26T09:23:36.133Z,64.85
2022-12-26T09:26:09.212Z,64.43
2022-12-26T09:28:35.980Z,63.90
2022-12-26T09:31:03.309Z,64.10
2022-12-26T09:33:33.504Z,64.14
2022-12-26T09:36:08.250Z,63.59
2022-12-26T09:38:37.786Z,63.41
2022-12-26T09:41:04.407Z,63.12
2022-12-26T09:43:50.263Z,63.27
2022-12-26T09:46:21.833Z,63.38
2022-12-26T09:48:54.546Z,63.10
2022-12-26T09:51:21.248Z,63.18
2022-12-26T09:53:47.950Z,62.57
2022-12-26T09:57:01.127Z,62.74
2022-12-26T09:59:16.069Z,62.61
2022-12-26T10:01:45.383Z,62.48
2022-12-26T10:04:34.602Z,62.47
2022-12-26T10:07:13.579Z,62.58
2022-12-26T10:09:43.508Z,62.25
2022-12-26T10:12:16.296Z,62.09
2022-12-26T10:15:01.679Z,62.11
2022-12-26T10:17:31.278Z,61.89
2022-12-26T10:20:00.613Z,62.16
2022-12-26T10:22:36.802Z,62.00
2022-12-26T10:25:06.224Z,61.96
2022-12-26T10:27:34.758Z,61.67
2022-12-26T10:30:05.492Z,61.62
2022-12-26T10:32:40.154Z,61.13
2022-12-26T10:35:36.351Z,61.99
2022-12-26T10:38:27.782Z,61.50
2022-12-26T10:40:55.216Z,62.50
2022-12-26T10:43:28.669Z,62.35
2022-12-26T10:45:58.328Z,61.48
2022-12-26T10:48:25.645Z,61.71
2022-12-26T10:50:53.852Z,61.75
2022-12-26T10:53:20.503Z,61.68
2022-12-26T10:55:47.268Z,61.65
2022-12-26T10:58:20.619Z,60.96
2022-12-26T11:00:49.728Z,60.82
2022-12-26T11:03:18.736Z,60.90
2022-12-26T11:06:08.974Z,60.82
2022-12-26T11:08:43.847Z,60.88
2022-12-26T11:11:14.833Z,60.86
2022-12-26T11:13:49.439Z,60.96
2022-12-26T11:16:23.587Z,61.29
2022-12-26T11:18:51.069Z,61.38
2022-12-26T11:21:17.748Z,61.85
2022-12-26T11:23:45.013Z,62.60
2022-12-26T11:26:22.593Z,62.57
2022-12-26T11:28:58.066Z,62.53
2022-12-26T11:31:32.186Z,62.42
2022-12-26T11:34:01.802Z,62.19
2022-12-26T11:36:29.218Z,62.20
2022-12-26T11:38:57.671Z,62.01
2022-12-26T11:41:33.472Z,62.40
2022-12-26T11:44:02.430Z,62.99
2022-12-26T11:46:35.642Z,63.86
2022-12-26T11:49:05.004Z,63.17
2022-12-26T11:51:42.078Z,62.61
2022-12-26T11:54:20.928Z,61.77
2022-12-26T11:56:47.912Z,61.84
2022-12-26T11:59:41.057Z,62.28
2022-12-26T12:02:13.544Z,61.90
2022-12-26T12:04:42.748Z,61.01
2022-12-26T12:07:15.345Z,60.79
2022-12-26T12:09:54.016Z,61.66
2022-12-26T12:12:33.015Z,62.90
2022-12-26T12:15:00.229Z,62.56
2022-12-26T12:17:45.805Z,61.89
2022-12-26T12:20:27.715Z,61.59
2022-12-26T12:22:56.854Z,61.33
2022-12-26T12:25:23.624Z,61.55
2022-12-26T12:27:59.655Z,61.32
2022-12-26T12:30:41.630Z,61.66
2022-12-26T12:33:22.914Z,61.37
2022-12-26T12:36:08.248Z,61.01
2022-12-26T12:38:56.839Z,60.52
2022-12-26T12:41:38.924Z,60.42
2022-12-26T12:44:19.588Z,60.33
2022-12-26T12:46:54.446Z,58.74
2022-12-26T12:49:24.692Z,59.65
2022-12-26T12:52:09.498Z,59.26
2022-12-26T12:54:42.151Z,59.63
2022-12-26T12:57:27.901Z,59.47
2022-12-26T13:00:00.722Z,58.93
2022-12-26T13:02:32.812Z,58.30
2022-12-26T13:05:05.047Z,58.45
2022-12-26T13:07:33.644Z,58.22
2022-12-26T13:10:04.689Z,58.46
2022-12-26T13:12:35.215Z,58.53
2022-12-26T13:15:03.033Z,58.39
2022-12-26T13:17:31.847Z,58.36
2022-12-26T13:20:01.803Z,58.88
2022-12-26T13:22:54.402Z,59.94
2022-12-26T13:25:21.207Z,60.17
2022-12-26T13:27:48.620Z,60.00
2022-12-26T13:30:17.702Z,59.70
2022-12-26T13:32:46.728Z,59.48
2022-12-26T13:35:32.432Z,60.06
2022-12-26T13:38:04.164Z,60.14
2022-12-26T13:40:31.253Z,60.94
2022-12-26T13:43:19.527Z,60.88
2022-12-26T13:45:50.462Z,61.01
2022-12-26T13:48:17.112Z,61.00
2022-12-26T13:50:55.249Z,61.04
2022-12-26T13:53:25.676Z,61.29
2022-12-26T13:55:53.534Z,61.26
2022-12-26T13:58:20.130Z,61.24
2022-12-26T14:00:47.253Z,61.44
2022-12-26T14:03:21.035Z,61.38
2022-12-26T14:05:58.091Z,61.41
2022-12-26T14:08:33.208Z,61.83
2022-12-26T14:11:13.371Z,62.12
2022-12-26T14:13:52.143Z,62.28
2022-12-26T14:16:44.245Z,62.73
2022-12-26T14:19:15.482Z,62.83
2022-12-26T14:21:56.669Z,62.87
2022-12-26T14:24:31.449Z,63.16
2022-12-26T14:27:19.706Z,63.22
2022-12-26T14:29:46.816Z,63.90
2022-12-26T14:32:22.539Z,64.08
2022-12-26T14:35:00.311Z,64.29
2022-12-26T14:37:32.950Z,64.67
2022-12-26T14:40:17.614Z,64.83
2022-12-26T14:43:12.868Z,64.79
2022-12-26T14:45:42.657Z,64.99
2022-12-26T14:48:29.586Z,65.30
2022-12-26T14:51:02.700Z,65.57
2022-12-26T14:53:33.659Z,65.85
2022-12-26T14:56:24.929Z,65.77
2022-12-26T14:58:55.431Z,65.86
2022-12-26T15:01:22.133Z,65.93
2022-12-26T15:03:51.955Z,66.07
2022-12-26T15:06:18.681Z,66.36
2022-12-26T15:08:45.393Z,66.19
2022-12-26T15:11:30.854Z,66.59
2022-12-26T15:14:00.356Z,66.86
2022-12-26T15:16:49.493Z,66.72
2022-12-26T15:19:35.026Z,66.52
2022-12-26T15:22:10.091Z,66.50
2022-12-26T15:28:01.978Z,66.89
2022-12-26T15:30:38.189Z,66.77
2022-12-26T15:33:10.177Z,66.86
2022-12-26T15:35:43.661Z,66.97
2022-12-26T15:38:25.622Z,67.03
2022-12-26T15:40:58.328Z,67.19
2022-12-26T15:43:30.848Z,67.16
2022-12-26T15:46:00.507Z,67.41
2022-12-26T15:48:28.022Z,67.59
2022-12-26T15:50:58.001Z,67.54
2022-12-26T15:53:39.893Z,67.91
2022-12-26T15:56:27.205Z,68.19
2022-12-26T15:58:57.210Z,67.85
2022-12-26T16:01:34.324Z,68.45
2022-12-26T16:04:04.134Z,68.27
2022-12-26T16:06:37.071Z,68.47
2022-12-26T16:09:09.884Z,68.48
2022-12-26T16:11:46.407Z,68.54
2022-12-26T16:14:39.403Z,68.33
2022-12-26T16:17:09.809Z,68.33
2022-12-26T16:19:36.554Z,68.47
2022-12-26T16:22:22.807Z,68.42
2022-12-26T16:24:51.633Z,68.39
2022-12-26T16:27:21.676Z,68.40
2022-12-26T16:29:51.644Z,68.59
2022-12-26T16:32:21.668Z,68.76
2022-12-26T16:34:48.693Z,68.97
2022-12-26T16:37:22.811Z,69.61
2022-12-26T16:40:08.440Z,69.48
2022-12-26T16:42:37.427Z,69.80
2022-12-26T16:45:04.121Z,69.74
2022-12-26T16:47:31.553Z,69.87
2022-12-26T16:50:01.193Z,70.01
2022-12-26T16:52:33.938Z,69.84
2022-12-26T16:55:19.371Z,69.60
2022-12-26T16:57:46.033Z,69.36
2022-12-26T17:00:21.779Z,69.65
2022-12-26T17:02:49.063Z,69.59
2022-12-26T17:05:23.091Z,69.86
2022-12-26T17:07:52.901Z,69.91
2022-12-26T17:10:21.102Z,69.86
2022-12-26T17:12:48.201Z,69.57
2022-12-26T17:15:19.375Z,69.40
2022-12-26T17:17:46.356Z,69.57
2022-12-26T17:20:36.317Z,69.56
2022-12-26T17:23:22.835Z,69.42
2022-12-26T17:25:51.008Z,69.45
2022-12-26T17:28:17.987Z,69.77
2022-12-26T17:30:50.449Z,69.71
2022-12-26T17:33:23.464Z,69.89
2022-12-26T17:38:40.405Z,69.90
2022-12-26T17:41:07.148Z,69.62
2022-12-26T17:43:37.610Z,69.61
2022-12-26T17:46:04.943Z,69.46
2022-12-26T17:48:31.927Z,69.73
2022-12-26T17:51:00.761Z,69.33
2022-12-26T17:53:33.809Z,69.37
2022-12-26T17:56:03.564Z,69.23
2022-12-26T17:58:32.700Z,69.33
2022-12-26T18:00:59.669Z,69.76
2022-12-26T18:03:31.016Z,70.00
2022-12-26T18:05:57.796Z,69.62
2022-12-26T18:08:28.535Z,69.65
2022-12-26T18:10:55.411Z,69.55
2022-12-26T18:13:22.013Z,69.83
2022-12-26T18:15:48.764Z,69.69
2022-12-26T18:18:40.851Z,69.96
2022-12-26T18:21:20.042Z,69.72
2022-12-26T18:23:49.136Z,69.54
2022-12-26T18:26:20.700Z,69.86
2022-12-26T18:28:47.465Z,69.98
2022-12-26T18:31:14.439Z,70.15
2022-12-26T18:33:43.520Z,70.07
2022-12-26T18:36:11.760Z,70.06
2022-12-26T18:38:38.426Z,70.07
2022-12-26T18:41:05.336Z,70.31
2022-12-26T18:43:31.980Z,70.16
2022-12-26T18:45:58.656Z,70.17
2022-12-26T18:48:25.433Z,70.27
2022-12-26T18:50:54.812Z,70.67
2022-12-26T18:53:23.961Z,70.88
2022-12-26T18:55:53.041Z,70.93
2022-12-26T18:58:21.933Z,70.71
2022-12-26T19:00:51.313Z,70.44
2022-12-26T19:03:18.130Z,70.46
2022-12-26T19:05:44.942Z,70.41
2022-12-26T19:08:14.455Z,70.81
2022-12-26T19:10:42.185Z,70.98
2022-12-26T19:13:11.255Z,71.16
2022-12-26T19:15:38.077Z,71.06
2022-12-26T19:18:07.164Z,71.24
2022-12-26T19:20:36.606Z,71.28
2022-12-26T19:23:10.182Z,71.23
2022-12-26T19:25:39.329Z,71.41
2022-12-26T19:28:06.722Z,71.41
2022-12-26T19:30:38.447Z,71.35
2022-12-26T19:33:07.622Z,71.34
2022-12-26T19:35:35.651Z,71.26
2022-12-26T19:38:02.398Z,71.09
2022-12-26T19:40:29.244Z,71.06
2022-12-26T19:42:55.943Z,70.88
2022-12-26T19:45:24.685Z,70.88
2022-12-26T19:47:51.425Z,70.81
2022-12-26T19:50:20.494Z,70.68
2022-12-26T19:52:47.523Z,71.35
2022-12-26T19:55:17.059Z,71.42
2022-12-26T19:57:43.641Z,71.36
2022-12-26T20:00:13.135Z,71.41
2022-12-26T20:02:49.898Z,71.45
2022-12-26T20:05:16.641Z,71.33
2022-12-26T20:07:43.276Z,71.43
2022-12-26T20:10:09.922Z,71.48
2022-12-26T20:12:36.763Z,72.07
2022-12-26T20:15:08.929Z,71.76
2022-12-26T20:17:38.704Z,71.86
2022-12-26T20:20:07.745Z,71.56
2022-12-26T20:22:34.393Z,71.47
2022-12-26T20:25:04.332Z,71.15
2022-12-26T20:27:31.071Z,71.24
2022-12-26T20:29:59.936Z,71.00
2022-12-26T20:32:29.528Z,70.78
2022-12-26T20:34:56.358Z,70.27
2022-12-26T20:37:23.002Z,70.18
2022-12-26T20:39:49.569Z,70.25
2022-12-26T20:42:19.653Z,70.01
2022-12-26T20:44:46.327Z,69.98
2022-12-26T20:47:15.692Z,69.87
2022-12-26T20:49:48.167Z,70.02
2022-12-26T20:52:16.618Z,70.55
2022-12-26T20:54:48.879Z,70.58
2022-12-26T20:57:20.926Z,70.68
2022-12-26T20:59:47.777Z,70.93
2022-12-26T21:02:14.815Z,70.67
2022-12-26T21:04:47.092Z,70.96
2022-12-26T21:07:13.753Z,71.16
2022-12-26T21:09:45.940Z,71.17
2022-12-26T21:12:15.753Z,71.19
2022-12-26T21:14:44.809Z,70.88
2022-12-26T21:17:18.160Z,72.26
2022-12-26T21:19:45.079Z,73.18
2022-12-26T21:22:11.685Z,73.06
2022-12-26T21:24:38.460Z,73.21
2022-12-26T21:27:05.081Z,72.84
2022-12-26T21:29:32.941Z,72.48
2022-12-26T21:32:02.082Z,72.45
2022-12-26T21:34:31.901Z,71.95
2022-12-26T21:37:17.213Z,71.65
2022-12-26T21:39:43.930Z,71.39
2022-12-26T21:42:13.211Z,71.39
2022-12-26T21:44:42.353Z,71.01
2022-12-26T21:47:09.028Z,71.10
2022-12-26T21:49:36.319Z,70.80
2022-12-26T21:52:03.681Z,70.82
2022-12-26T21:54:51.369Z,70.71
2022-12-26T21:57:18.462Z,70.81
2022-12-26T21:59:57.645Z,70.61
2022-12-26T22:02:50.714Z,70.56
2022-12-26T22:05:20.909Z,70.27
2022-12-26T22:07:47.728Z,70.49
2022-12-26T22:10:34.342Z,70.33
2022-12-26T22:13:03.740Z,69.91
2022-12-26T22:15:51.139Z,70.28
2022-12-26T22:18:20.253Z,70.94
2022-12-26T22:20:49.438Z,71.14
2022-12-26T22:23:16.181Z,71.19
2022-12-26T22:25:42.846Z,71.60
2022-12-26T22:28:12.106Z,71.62
2022-12-26T22:30:38.677Z,71.42
2022-12-26T22:33:11.201Z,71.09
2022-12-26T22:35:38.220Z,71.53
2022-12-26T22:38:04.867Z,72.13
2022-12-26T22:40:34.358Z,72.10
2022-12-26T22:43:03.792Z,71.71
2022-12-26T22:45:30.423Z,71.92
2022-12-26T22:47:59.584Z,71.98
2022-12-26T22:50:29.389Z,71.98
2022-12-26T22:52:58.864Z,71.83
2022-12-26T22:55:25.560Z,71.68
2022-12-26T22:58:17.375Z,71.42
2022-12-26T23:00:44.330Z,71.35
2022-12-26T23:03:11.126Z,71.59
2022-12-26T23:05:38.269Z,72.06
2022-12-26T23:08:05.381Z,72.00
2022-12-26T23:10:32.262Z,72.22
2022-12-26T23:13:03.650Z,72.23
2022-12-26T23:15:35.658Z,71.92
2022-12-26T23:18:24.093Z,71.56
2022-12-26T23:21:09.749Z,70.88
2022-12-26T23:23:36.430Z,71.39
2022-12-26T23:26:05.289Z,71.53
2022-12-26T23:28:50.922Z,71.37
2022-12-26T23:31:17.564Z,71.30
2022-12-26T23:33:44.315Z,71.30
2022-12-26T23:36:11.046Z,71.01
2022-12-26T23:38:37.777Z,70.96
2022-12-26T23:41:07.819Z,70.90
2022-12-26T23:43:34.535Z,70.84
2022-12-26T23:46:01.264Z,70.73
2022-12-26T23:48:32.937Z,70.52
2022-12-26T23:51:06.110Z,71.01
2022-12-26T23:53:35.575Z,70.97
2022-12-26T23:56:02.115Z,70.72
2022-12-26T23:58:32.063Z,70.94
